sensor_id;sensor_type;location;lat;lon;timestamp;pressure;altitude;pressure_sealevel;temperature;humidity
39491;BME280;25175;50.140;18.990;2023-02-15T00:00:02;100201.94;;;4.15;58.85
39491;BME280;25175;50.140;18.990;2023-02-15T00:03:12;100199.50;;;4.14;58.53
39491;BME280;25175;50.140;18.990;2023-02-15T00:06:25;100206.56;;;4.12;58.58
39491;BME280;25175;50.140;18.990;2023-02-15T00:09:36;100106.25;;;3.48;58.63
39491;BME280;25175;50.140;18.990;2023-02-15T00:16:48;100200.72;;;3.99;59.33
39491;BME280;25175;50.140;18.990;2023-02-15T00:20:15;100199.78;;;4.00;59.39
39491;BME280;25175;50.140;18.990;2023-02-15T00:27:54;100179.38;;;3.95;58.67
39491;BME280;25175;50.140;18.990;2023-02-15T00:31:04;100181.19;;;3.84;59.30
39491;BME280;25175;50.140;18.990;2023-02-15T00:34:18;100178.09;;;3.79;59.78
39491;BME280;25175;50.140;18.990;2023-02-15T00:42:02;100172.72;;;3.71;59.88
39491;BME280;25175;50.140;18.990;2023-02-15T00:45:14;100167.16;;;3.75;59.84
39491;BME280;25175;50.140;18.990;2023-02-15T00:48:28;100164.31;;;3.78;59.39
39491;BME280;25175;50.140;18.990;2023-02-15T00:51:49;100158.41;;;3.76;59.66
39491;BME280;25175;50.140;18.990;2023-02-15T00:55:00;100143.91;;;3.74;59.72
39491;BME280;25175;50.140;18.990;2023-02-15T00:58:32;100146.16;;;3.78;59.83
39491;BME280;25175;50.140;18.990;2023-02-15T01:01:42;100157.25;;;3.80;59.58
39491;BME280;25175;50.140;18.990;2023-02-15T01:04:50;100153.69;;;3.81;59.62
39491;BME280;25175;50.140;18.990;2023-02-15T01:07:59;100149.53;;;3.79;59.78
39491;BME280;25175;50.140;18.990;2023-02-15T01:11:47;100150.50;;;3.78;59.60
39491;BME280;25175;50.140;18.990;2023-02-15T01:18:36;100145.31;;;3.78;59.43
39491;BME280;25175;50.140;18.990;2023-02-15T01:21:59;100150.75;;;3.75;59.60
39491;BME280;25175;50.140;18.990;2023-02-15T01:25:13;100143.66;;;3.77;59.23
39491;BME280;25175;50.140;18.990;2023-02-15T01:28:20;100148.84;;;3.77;59.29
39491;BME280;25175;50.140;18.990;2023-02-15T01:31:30;100085.50;;;3.48;59.15
39491;BME280;25175;50.140;18.990;2023-02-15T01:34:36;100138.47;;;3.77;59.33
39491;BME280;25175;50.140;18.990;2023-02-15T01:37:43;100123.13;;;3.74;58.96
39491;BME280;25175;50.140;18.990;2023-02-15T01:40:51;100052.56;;;3.28;59.20
39491;BME280;25175;50.140;18.990;2023-02-15T01:44:53;100118.78;;;3.74;59.09
39491;BME280;25175;50.140;18.990;2023-02-15T01:48:19;100079.59;;;3.46;59.04
39491;BME280;25175;50.140;18.990;2023-02-15T01:51:30;100127.00;;;3.79;59.05
39491;BME280;25175;50.140;18.990;2023-02-15T01:54:46;100113.69;;;3.84;58.79
39491;BME280;25175;50.140;18.990;2023-02-15T01:58:32;100110.84;;;3.87;58.83
39491;BME280;25175;50.140;18.990;2023-02-15T02:02:15;100102.22;;;3.86;58.62
39491;BME280;25175;50.140;18.990;2023-02-15T02:05:31;100105.78;;;3.85;58.93
39491;BME280;25175;50.140;18.990;2023-02-15T02:08:49;100097.03;;;3.86;58.56
39491;BME280;25175;50.140;18.990;2023-02-15T02:12:09;100083.47;;;3.83;58.52
39491;BME280;25175;50.140;18.990;2023-02-15T02:15:25;100078.66;;;3.78;58.87
39491;BME280;25175;50.140;18.990;2023-02-15T02:18:53;100083.38;;;3.73;58.40
39491;BME280;25175;50.140;18.990;2023-02-15T02:30:59;100078.94;;;3.64;58.87
39491;BME280;25175;50.140;18.990;2023-02-15T02:34:42;100066.63;;;3.66;59.13
39491;BME280;25175;50.140;18.990;2023-02-15T02:38:07;100061.22;;;3.69;58.88
39491;BME280;25175;50.140;18.990;2023-02-15T02:41:24;100045.53;;;3.71;59.14
39491;BME280;25175;50.140;18.990;2023-02-15T02:44:48;100050.72;;;3.71;59.07
39491;BME280;25175;50.140;18.990;2023-02-15T02:48:10;100045.53;;;3.71;58.99
39491;BME280;25175;50.140;18.990;2023-02-15T02:51:58;100044.69;;;3.70;58.87
39491;BME280;25175;50.140;18.990;2023-02-15T02:59:05;100034.00;;;3.64;58.96
39491;BME280;25175;50.140;18.990;2023-02-15T03:02:24;100037.66;;;3.61;59.12
39491;BME280;25175;50.140;18.990;2023-02-15T03:05:41;100047.59;;;3.56;59.05
39491;BME280;25175;50.140;18.990;2023-02-15T03:09:03;100035.69;;;3.54;59.24
39491;BME280;25175;50.140;18.990;2023-02-15T03:12:20;100035.94;;;3.51;59.17
39491;BME280;25175;50.140;18.990;2023-02-15T03:15:34;100007.38;;;3.30;59.35
39491;BME280;25175;50.140;18.990;2023-02-15T03:19:03;100032.19;;;3.44;59.17
39491;BME280;25175;50.140;18.990;2023-02-15T03:22:17;100022.06;;;3.41;59.29
39491;BME280;25175;50.140;18.990;2023-02-15T03:25:45;100027.25;;;3.41;59.25
39491;BME280;25175;50.140;18.990;2023-02-15T03:29:01;100022.06;;;3.41;59.53
39491;BME280;25175;50.140;18.990;2023-02-15T03:32:16;100033.50;;;3.38;59.27
39491;BME280;25175;50.140;18.990;2023-02-15T03:35:26;100030.22;;;3.36;59.36
39491;BME280;25175;50.140;18.990;2023-02-15T03:38:53;100023.63;;;3.32;59.42
39491;BME280;25175;50.140;18.990;2023-02-15T03:42:13;100034.97;;;3.31;59.55
39491;BME280;25175;50.140;18.990;2023-02-15T03:45:31;100030.63;;;3.32;59.36
39491;BME280;25175;50.140;18.990;2023-02-15T03:48:53;100028.00;;;3.32;59.50
39491;BME280;25175;50.140;18.990;2023-02-15T03:52:05;100036.03;;;3.29;59.61
39491;BME280;25175;50.140;18.990;2023-02-15T03:55:19;99991.91;;;3.08;59.88
39491;BME280;25175;50.140;18.990;2023-02-15T03:58:28;100023.91;;;3.29;59.96
39491;BME280;25175;50.140;18.990;2023-02-15T04:01:59;100022.09;;;3.30;59.69
39491;BME280;25175;50.140;18.990;2023-02-15T04:06:05;100032.63;;;3.28;59.61
39491;BME280;25175;50.140;18.990;2023-02-15T04:09:54;100037.22;;;3.25;59.54
39491;BME280;25175;50.140;18.990;2023-02-15T04:13:38;100035.84;;;3.21;59.81
39491;BME280;25175;50.140;18.990;2023-02-15T04:16:43;100040.31;;;3.19;60.01
39491;BME280;25175;50.140;18.990;2023-02-15T04:19:48;100025.97;;;3.15;60.07
39491;BME280;25175;50.140;18.990;2023-02-15T04:23:36;100030.69;;;3.10;60.30
39491;BME280;25175;50.140;18.990;2023-02-15T04:27:13;100038.69;;;3.07;60.41
39491;BME280;25175;50.140;18.990;2023-02-15T04:30:36;100038.97;;;3.04;60.73
39491;BME280;25175;50.140;18.990;2023-02-15T04:33:46;99951.88;;;2.59;60.65
39491;BME280;25175;50.140;18.990;2023-02-15T04:36:54;100030.81;;;3.08;60.73
39491;BME280;25175;50.140;18.990;2023-02-15T04:40:05;100029.06;;;3.09;60.55
39491;BME280;25175;50.140;18.990;2023-02-15T04:43:20;99997.38;;;2.94;60.47
39491;BME280;25175;50.140;18.990;2023-02-15T04:46:35;99982.22;;;2.79;60.64
39491;BME280;25175;50.140;18.990;2023-02-15T04:57:47;99942.75;;;2.44;60.61
39491;BME280;25175;50.140;18.990;2023-02-15T05:00:55;100034.00;;;3.01;60.50
39491;BME280;25175;50.140;18.990;2023-02-15T05:04:50;100037.66;;;2.98;60.70
39491;BME280;25175;50.140;18.990;2023-02-15T05:08:02;100034.00;;;3.01;60.92
39491;BME280;25175;50.140;18.990;2023-02-15T05:11:21;99900.88;;;2.17;60.58
39491;BME280;25175;50.140;18.990;2023-02-15T05:14:58;100035.91;;;2.99;60.69
39491;BME280;25175;50.140;18.990;2023-02-15T05:18:07;100046.41;;;2.97;60.94
39491;BME280;25175;50.140;18.990;2023-02-15T05:21:16;100031.78;;;2.96;61.19
39491;BME280;25175;50.140;18.990;2023-02-15T05:24:22;100041.31;;;2.96;61.24
39491;BME280;25175;50.140;18.990;2023-02-15T05:27:45;100038.84;;;2.94;61.11
39491;BME280;25175;50.140;18.990;2023-02-15T05:31:07;100047.22;;;2.98;61.16
39491;BME280;25175;50.140;18.990;2023-02-15T05:34:22;100042.84;;;2.98;61.01
39491;BME280;25175;50.140;18.990;2023-02-15T05:37:35;100034.50;;;2.95;61.34
39491;BME280;25175;50.140;18.990;2023-02-15T05:40:48;100030.16;;;2.95;61.52
39491;BME280;25175;50.140;18.990;2023-02-15T05:43:56;100032.47;;;2.98;61.41
39491;BME280;25175;50.140;18.990;2023-02-15T05:47:06;100031.41;;;3.01;61.32
39491;BME280;25175;50.140;18.990;2023-02-15T05:50:12;100033.19;;;3.00;61.22
39491;BME280;25175;50.140;18.990;2023-02-15T05:53:33;100051.47;;;2.99;61.59
39491;BME280;25175;50.140;18.990;2023-02-15T05:56:49;100040.84;;;3.02;61.43
39491;BME280;25175;50.140;18.990;2023-02-15T05:59:55;100041.91;;;2.99;61.57
39491;BME280;25175;50.140;18.990;2023-02-15T06:03:17;99741.59;;;1.15;61.60
39491;BME280;25175;50.140;18.990;2023-02-15T06:06:26;100035.91;;;2.99;61.82
39491;BME280;25175;50.140;18.990;2023-02-15T06:09:36;100033.44;;;2.97;61.71
39491;BME280;25175;50.140;18.990;2023-02-15T06:12:44;100029.19;;;2.96;61.97
39491;BME280;25175;50.140;18.990;2023-02-15T06:15:57;100026.38;;;2.88;61.67
39491;BME280;25175;50.140;18.990;2023-02-15T06:19:07;100032.97;;;2.92;61.98
39491;BME280;25175;50.140;18.990;2023-02-15T06:22:13;100047.13;;;2.88;61.82
39491;BME280;25175;50.140;18.990;2023-02-15T06:25:27;100034.63;;;2.82;62.07
39491;BME280;25175;50.140;18.990;2023-02-15T06:28:34;100037.50;;;2.79;62.34
39491;BME280;25175;50.140;18.990;2023-02-15T06:31:40;100049.50;;;2.80;62.54
39491;BME280;25175;50.140;18.990;2023-02-15T06:34:55;100046.78;;;2.82;62.39
39491;BME280;25175;50.140;18.990;2023-02-15T06:38:09;100045.84;;;2.83;62.45
39491;BME280;25175;50.140;18.990;2023-02-15T06:41:39;100051.84;;;2.83;62.43
39491;BME280;25175;50.140;18.990;2023-02-15T06:44:49;100045.59;;;2.86;62.46
39491;BME280;25175;50.140;18.990;2023-02-15T06:47:55;100046.44;;;2.86;62.43
39491;BME280;25175;50.140;18.990;2023-02-15T06:51:12;100046.53;;;2.85;62.69
39491;BME280;25175;50.140;18.990;2023-02-15T06:58:21;100047.38;;;2.85;62.67
39491;BME280;25175;50.140;18.990;2023-02-15T07:01:31;100030.88;;;2.86;62.75
39491;BME280;25175;50.140;18.990;2023-02-15T07:04:39;99958.06;;;2.36;62.65
39491;BME280;25175;50.140;18.990;2023-02-15T07:11:45;100008.44;;;2.65;62.85
39491;BME280;25175;50.140;18.990;2023-02-15T07:15:08;100048.19;;;2.86;62.60
39491;BME280;25175;50.140;18.990;2023-02-15T07:18:20;100041.25;;;2.86;62.61
39491;BME280;25175;50.140;18.990;2023-02-15T07:21:26;100048.19;;;2.86;62.83
39491;BME280;25175;50.140;18.990;2023-02-15T07:24:41;100048.06;;;2.87;62.77
39491;BME280;25175;50.140;18.990;2023-02-15T07:27:47;100025.34;;;2.80;62.53
39491;BME280;25175;50.140;18.990;2023-02-15T07:31:01;100084.94;;;2.91;62.66
39491;BME280;25175;50.140;18.990;2023-02-15T07:34:43;100045.09;;;2.92;62.56
39491;BME280;25175;50.140;18.990;2023-02-15T07:38:24;100044.88;;;2.95;62.44
39491;BME280;25175;50.140;18.990;2023-02-15T07:41:41;99940.63;;;2.38;62.13
39491;BME280;25175;50.140;18.990;2023-02-15T07:44:47;100039.69;;;2.95;62.42
39491;BME280;25175;50.140;18.990;2023-02-15T07:48:05;100032.84;;;2.94;62.04
39491;BME280;25175;50.140;18.990;2023-02-15T07:51:23;100034.38;;;2.96;62.43
39491;BME280;25175;50.140;18.990;2023-02-15T07:54:36;100027.19;;;3.00;62.33
39491;BME280;25175;50.140;18.990;2023-02-15T07:58:05;100029.28;;;3.06;62.31
39491;BME280;25175;50.140;18.990;2023-02-15T08:01:13;100027.97;;;3.11;62.31
39491;BME280;25175;50.140;18.990;2023-02-15T08:04:48;100021.47;;;3.17;61.85
39491;BME280;25175;50.140;18.990;2023-02-15T08:11:38;99961.00;;;2.85;61.58
39491;BME280;25175;50.140;18.990;2023-02-15T08:14:59;100026.94;;;3.34;61.84
39491;BME280;25175;50.140;18.990;2023-02-15T08:18:16;100010.75;;;3.42;61.52
39491;BME280;25175;50.140;18.990;2023-02-15T08:21:26;100009.03;;;3.52;61.49
39491;BME280;25175;50.140;18.990;2023-02-15T08:24:53;100007.34;;;3.62;61.23
39491;BME280;25175;50.140;18.990;2023-02-15T08:28:03;100003.97;;;3.71;61.13
39491;BME280;25175;50.140;18.990;2023-02-15T08:31:11;99999.91;;;3.78;61.06
39491;BME280;25175;50.140;18.990;2023-02-15T08:34:22;99887.69;;;2.94;60.63
39491;BME280;25175;50.140;18.990;2023-02-15T08:38:03;99984.81;;;3.83;60.40
39491;BME280;25175;50.140;18.990;2023-02-15T08:41:12;99988.00;;;3.96;60.35
39491;BME280;25175;50.140;18.990;2023-02-15T08:44:23;99979.59;;;4.03;60.07
39491;BME280;25175;50.140;18.990;2023-02-15T08:47:30;99987.28;;;4.14;60.08
39491;BME280;25175;50.140;18.990;2023-02-15T08:50:48;99985.56;;;4.24;59.75
39491;BME280;25175;50.140;18.990;2023-02-15T08:54:04;99978.63;;;4.34;59.77
39491;BME280;25175;50.140;18.990;2023-02-15T09:00:48;99965.53;;;4.55;59.29
39491;BME280;25175;50.140;18.990;2023-02-15T09:03:58;99975.16;;;4.64;59.27
39491;BME280;25175;50.140;18.990;2023-02-15T09:07:22;99972.44;;;4.75;58.70
39491;BME280;25175;50.140;18.990;2023-02-15T09:10:31;99975.16;;;4.83;58.75
39491;BME280;25175;50.140;18.990;2023-02-15T09:13:37;99976.00;;;4.93;59.12
39491;BME280;25175;50.140;18.990;2023-02-15T09:16:48;99976.13;;;5.01;58.38
39491;BME280;25175;50.140;18.990;2023-02-15T09:20:07;99974.78;;;5.06;58.37
39491;BME280;25175;50.140;18.990;2023-02-15T09:24:09;99963.94;;;5.20;58.04
39491;BME280;25175;50.140;18.990;2023-02-15T09:28:22;99957.50;;;5.34;57.62
39491;BME280;25175;50.140;18.990;2023-02-15T09:31:54;99923.28;;;5.29;57.30
39491;BME280;25175;50.140;18.990;2023-02-15T09:35:00;99943.63;;;5.52;57.05
39491;BME280;25175;50.140;18.990;2023-02-15T09:38:07;99942.94;;;5.60;56.48
39491;BME280;25175;50.140;18.990;2023-02-15T09:45:45;99916.50;;;5.74;56.51
39491;BME280;25175;50.140;18.990;2023-02-15T09:53:45;99926.41;;;6.24;56.22
39491;BME280;25175;50.140;18.990;2023-02-15T09:57:13;99922.34;;;6.39;55.29
39491;BME280;25175;50.140;18.990;2023-02-15T10:01:03;99918.69;;;6.50;54.06
39491;BME280;25175;50.140;18.990;2023-02-15T10:04:45;99918.47;;;6.61;54.16
39491;BME280;25175;50.140;18.990;2023-02-15T10:08:32;99918.00;;;6.75;54.40
39491;BME280;25175;50.140;18.990;2023-02-15T10:12:34;99922.09;;;6.95;53.33
39491;BME280;25175;50.140;18.990;2023-02-15T10:16:16;99911.81;;;6.93;53.00
39491;BME280;25175;50.140;18.990;2023-02-15T10:19:44;99922.53;;;7.08;52.08
39491;BME280;25175;50.140;18.990;2023-02-15T10:23:39;99643.97;;;5.55;52.02
39491;BME280;25175;50.140;18.990;2023-02-15T10:27:01;99905.06;;;7.26;50.54
39491;BME280;25175;50.140;18.990;2023-02-15T10:30:56;99885.25;;;7.33;49.98
39491;BME280;25175;50.140;18.990;2023-02-15T10:38:38;99900.66;;;7.69;50.19
39491;BME280;25175;50.140;18.990;2023-02-15T10:42:02;99879.97;;;7.84;49.27
39491;BME280;25175;50.140;18.990;2023-02-15T10:45:24;99880.06;;;8.00;49.47
39491;BME280;25175;50.140;18.990;2023-02-15T10:49:11;99875.38;;;8.19;50.31
39491;BME280;25175;50.140;18.990;2023-02-15T11:01:05;99866.81;;;8.59;49.26
39491;BME280;25175;50.140;18.990;2023-02-15T11:04:46;99866.69;;;8.76;48.06
39491;BME280;25175;50.140;18.990;2023-02-15T11:08:48;99850.50;;;8.89;47.10
39491;BME280;25175;50.140;18.990;2023-02-15T11:12:32;99839.38;;;8.95;46.87
39491;BME280;25175;50.140;18.990;2023-02-15T11:15:50;99824.16;;;8.90;46.52
39491;BME280;25175;50.140;18.990;2023-02-15T11:19:08;99844.91;;;9.08;46.67
39491;BME280;25175;50.140;18.990;2023-02-15T11:22:41;99832.16;;;9.21;46.31
39491;BME280;25175;50.140;18.990;2023-02-15T11:26:13;99840.81;;;9.21;45.76
39491;BME280;25175;50.140;18.990;2023-02-15T11:29:33;99830.50;;;9.28;46.07
39491;BME280;25175;50.140;18.990;2023-02-15T11:32:55;99828.50;;;9.30;45.77
39491;BME280;25175;50.140;18.990;2023-02-15T11:36:08;99834.22;;;9.33;44.96
39491;BME280;25175;50.140;18.990;2023-02-15T11:39:27;99823.59;;;9.35;45.50
39491;BME280;25175;50.140;18.990;2023-02-15T11:47:10;99808.19;;;9.48;45.57
39491;BME280;25175;50.140;18.990;2023-02-15T11:51:02;99813.22;;;9.57;45.00
39491;BME280;25175;50.140;18.990;2023-02-15T11:54:14;99780.69;;;9.44;45.04
39491;BME280;25175;50.140;18.990;2023-02-15T11:57:27;99800.59;;;9.61;45.29
39491;BME280;25175;50.140;18.990;2023-02-15T12:00:45;99799.91;;;9.67;45.10
39491;BME280;25175;50.140;18.990;2023-02-15T12:04:10;99772.59;;;9.61;44.78
39491;BME280;25175;50.140;18.990;2023-02-15T12:07:45;99785.59;;;9.77;45.10
39491;BME280;25175;50.140;18.990;2023-02-15T12:11:07;99777.09;;;9.75;44.32
39491;BME280;25175;50.140;18.990;2023-02-15T12:18:45;99775.81;;;9.79;44.89
39491;BME280;25175;50.140;18.990;2023-02-15T12:22:23;99771.69;;;9.85;44.03
39491;BME280;25175;50.140;18.990;2023-02-15T12:25:36;99760.22;;;9.86;43.95
39491;BME280;25175;50.140;18.990;2023-02-15T12:28:50;99786.00;;;10.05;44.22
39491;BME280;25175;50.140;18.990;2023-02-15T12:32:00;99672.56;;;9.50;43.93
39491;BME280;25175;50.140;18.990;2023-02-15T12:35:25;99761.53;;;10.12;43.09
39491;BME280;25175;50.140;18.990;2023-02-15T12:39:41;99750.22;;;10.12;43.71
39491;BME280;25175;50.140;18.990;2023-02-15T12:42:43;99747.56;;;10.20;43.88
39491;BME280;25175;50.140;18.990;2023-02-15T12:45:51;99744.22;;;10.26;44.08
39491;BME280;25175;50.140;18.990;2023-02-15T12:49:17;99726.91;;;10.17;42.11
39491;BME280;25175;50.140;18.990;2023-02-15T12:52:29;99748.47;;;10.27;41.27
39491;BME280;25175;50.140;18.990;2023-02-15T12:55:36;99744.06;;;10.27;41.58
39491;BME280;25175;50.140;18.990;2023-02-15T12:58:42;99727.50;;;10.27;41.78
39491;BME280;25175;50.140;18.990;2023-02-15T13:06:24;99729.25;;;10.34;41.04
39491;BME280;25175;50.140;18.990;2023-02-15T13:09:42;99719.38;;;10.36;41.29
39491;BME280;25175;50.140;18.990;2023-02-15T13:12:57;99718.38;;;10.37;40.89
39491;BME280;25175;50.140;18.990;2023-02-15T13:16:30;99714.25;;;10.43;40.92
39491;BME280;25175;50.140;18.990;2023-02-15T13:19:43;99712.69;;;10.48;40.97
39491;BME280;25175;50.140;18.990;2023-02-15T13:23:04;99709.56;;;10.53;40.39
39491;BME280;25175;50.140;18.990;2023-02-15T13:27:00;99703.16;;;10.33;40.12
39491;BME280;25175;50.140;18.990;2023-02-15T13:30:26;99705.66;;;10.49;39.89
39491;BME280;25175;50.140;18.990;2023-02-15T13:33:38;99695.78;;;10.51;40.23
39491;BME280;25175;50.140;18.990;2023-02-15T13:37:05;99696.63;;;10.51;39.82
39491;BME280;25175;50.140;18.990;2023-02-15T13:40:50;99692.38;;;10.50;39.69
39491;BME280;25175;50.140;18.990;2023-02-15T13:45:07;99679.41;;;10.49;39.58
39491;BME280;25175;50.140;18.990;2023-02-15T13:48:58;99681.88;;;10.50;39.74
39491;BME280;25175;50.140;18.990;2023-02-15T13:52:21;99681.94;;;10.57;39.34
39491;BME280;25175;50.140;18.990;2023-02-15T13:55:37;99682.44;;;10.60;39.26
39491;BME280;25175;50.140;18.990;2023-02-15T13:59:15;99679.09;;;10.66;39.64
39491;BME280;25175;50.140;18.990;2023-02-15T14:06:52;99673.41;;;10.77;39.80
39491;BME280;25175;50.140;18.990;2023-02-15T14:10:35;99671.22;;;10.81;39.66
39491;BME280;25175;50.140;18.990;2023-02-15T14:14:40;99668.22;;;10.84;39.79
39491;BME280;25175;50.140;18.990;2023-02-15T14:18:18;99663.25;;;10.89;39.61
39491;BME280;25175;50.140;18.990;2023-02-15T14:21:46;99669.25;;;10.97;39.99
39491;BME280;25175;50.140;18.990;2023-02-15T14:25:22;99668.16;;;10.92;39.25
39491;BME280;25175;50.140;18.990;2023-02-15T14:28:45;99629.28;;;10.58;39.71
39491;BME280;25175;50.140;18.990;2023-02-15T14:32:04;99285.78;;;8.46;40.10
39491;BME280;25175;50.140;18.990;2023-02-15T14:43:15;99659.31;;;10.56;39.81
39491;BME280;25175;50.140;18.990;2023-02-15T14:46:38;99650.16;;;10.37;40.41
39491;BME280;25175;50.140;18.990;2023-02-15T14:49:50;99642.41;;;10.21;40.45
39491;BME280;25175;50.140;18.990;2023-02-15T14:53:37;99650.28;;;10.21;40.79
39491;BME280;25175;50.140;18.990;2023-02-15T15:00:47;99652.78;;;10.00;41.37
39491;BME280;25175;50.140;18.990;2023-02-15T15:07:48;99660.41;;;9.87;42.20
39491;BME280;25175;50.140;18.990;2023-02-15T15:11:45;99655.06;;;9.73;42.30
39491;BME280;25175;50.140;18.990;2023-02-15T15:14:52;99657.38;;;9.68;42.39
39491;BME280;25175;50.140;18.990;2023-02-15T15:18:10;99652.22;;;9.60;42.90
39491;BME280;25175;50.140;18.990;2023-02-15T15:22:06;99654.22;;;9.50;43.24
39491;BME280;25175;50.140;18.990;2023-02-15T15:25:42;99653.94;;;9.45;43.19
39491;BME280;25175;50.140;18.990;2023-02-15T15:29:07;99653.78;;;9.38;43.24
39491;BME280;25175;50.140;18.990;2023-02-15T15:32:30;99642.38;;;9.31;43.68
39491;BME280;25175;50.140;18.990;2023-02-15T15:36:04;99650.84;;;9.03;44.17
39491;BME280;25175;50.140;18.990;2023-02-15T15:40:04;99647.69;;;9.15;44.36
39491;BME280;25175;50.140;18.990;2023-02-15T15:44:24;99635.44;;;9.08;44.34
39491;BME280;25175;50.140;18.990;2023-02-15T15:48:07;99643.50;;;8.98;44.81
39491;BME280;25175;50.140;18.990;2023-02-15T15:51:34;99632.88;;;8.92;45.01
39491;BME280;25175;50.140;18.990;2023-02-15T15:55:56;99637.53;;;8.82;45.33
39491;BME280;25175;50.140;18.990;2023-02-15T15:58:50;99634.41;;;8.78;45.54
39491;BME280;25175;50.140;18.990;2023-02-15T16:02:20;99642.25;;;8.78;45.91
39491;BME280;25175;50.140;18.990;2023-02-15T16:05:35;99623.97;;;8.70;45.71
39491;BME280;25175;50.140;18.990;2023-02-15T16:08:50;99621.38;;;8.62;45.88
39491;BME280;25175;50.140;18.990;2023-02-15T16:12:10;99615.00;;;8.49;46.01
39491;BME280;25175;50.140;18.990;2023-02-15T16:15:36;99631.66;;;8.48;46.43
39491;BME280;25175;50.140;18.990;2023-02-15T16:18:59;99642.00;;;8.41;46.70
39491;BME280;25175;50.140;18.990;2023-02-15T16:22:15;99632.84;;;8.37;46.86
39491;BME280;25175;50.140;18.990;2023-02-15T16:37:26;99640.22;;;8.10;47.36
39491;BME280;25175;50.140;18.990;2023-02-15T16:44:54;99646.25;;;7.94;47.10
39491;BME280;25175;50.140;18.990;2023-02-15T16:51:36;99639.38;;;7.77;47.77
39491;BME280;25175;50.140;18.990;2023-02-15T16:55:37;99644.59;;;7.61;48.16
39491;BME280;25175;50.140;18.990;2023-02-15T17:00:03;99642.75;;;7.46;48.30
39491;BME280;25175;50.140;18.990;2023-02-15T17:03:25;99640.78;;;7.40;48.81
39491;BME280;25175;50.140;18.990;2023-02-15T17:07:13;99639.81;;;7.33;48.76
39491;BME280;25175;50.140;18.990;2023-02-15T17:10:30;99640.91;;;7.22;48.90
39491;BME280;25175;50.140;18.990;2023-02-15T17:14:12;99637.56;;;7.12;49.22
39491;BME280;25175;50.140;18.990;2023-02-15T17:17:48;99642.13;;;7.02;49.68
39491;BME280;25175;50.140;18.990;2023-02-15T17:24:40;99644.78;;;6.85;50.21
39491;BME280;25175;50.140;18.990;2023-02-15T17:27:58;99645.72;;;6.76;50.38
39491;BME280;25175;50.140;18.990;2023-02-15T17:31:07;99639.78;;;6.66;50.65
39491;BME280;25175;50.140;18.990;2023-02-15T17:34:42;99638.44;;;6.54;51.01
39491;BME280;25175;50.140;18.990;2023-02-15T17:38:16;99668.69;;;6.47;51.28
39491;BME280;25175;50.140;18.990;2023-02-15T17:41:28;99638.19;;;6.39;51.32
39491;BME280;25175;50.140;18.990;2023-02-15T17:44:38;99612.09;;;6.14;51.76
39491;BME280;25175;50.140;18.990;2023-02-15T17:47:48;99642.16;;;6.26;51.80
39491;BME280;25175;50.140;18.990;2023-02-15T17:50:54;99629.38;;;6.15;51.84
39491;BME280;25175;50.140;18.990;2023-02-15T17:54:08;99606.88;;;5.88;52.30
39491;BME280;25175;50.140;18.990;2023-02-15T17:57:28;99621.66;;;5.88;52.49
39491;BME280;25175;50.140;18.990;2023-02-15T18:00:43;99622.50;;;5.71;52.72
39491;BME280;25175;50.140;18.990;2023-02-15T18:04:04;99681.28;;;5.46;53.20
39491;BME280;25175;50.140;18.990;2023-02-15T18:07:33;99627.88;;;5.42;53.47
39491;BME280;25175;50.140;18.990;2023-02-15T18:10:54;99633.28;;;5.31;53.63
39491;BME280;25175;50.140;18.990;2023-02-15T18:14:14;99636.91;;;5.21;54.03
39491;BME280;25175;50.140;18.990;2023-02-15T18:21:40;99633.47;;;5.03;54.64
39491;BME280;25175;50.140;18.990;2023-02-15T18:24:59;99629.81;;;4.96;54.81
39491;BME280;25175;50.140;18.990;2023-02-15T18:29:26;99632.97;;;4.90;54.87
39491;BME280;25175;50.140;18.990;2023-02-15T18:31:54;99632.59;;;4.85;55.24
39491;BME280;25175;50.140;18.990;2023-02-15T18:35:16;99626.16;;;4.79;55.12
39491;BME280;25175;50.140;18.990;2023-02-15T18:42:35;99619.78;;;4.64;55.73
39491;BME280;25175;50.140;18.990;2023-02-15T18:46:06;99620.66;;;4.55;55.72
39491;BME280;25175;50.140;18.990;2023-02-15T18:49:12;99616.84;;;4.50;56.14
39491;BME280;25175;50.140;18.990;2023-02-15T18:52:38;99609.22;;;4.39;56.19
39491;BME280;25175;50.140;18.990;2023-02-15T18:56:24;99621.94;;;4.42;56.12
39491;BME280;25175;50.140;18.990;2023-02-15T18:59:35;99624.13;;;4.37;56.17
39491;BME280;25175;50.140;18.990;2023-02-15T19:03:05;99628.25;;;4.30;56.62
39491;BME280;25175;50.140;18.990;2023-02-15T19:06:16;99630.16;;;4.28;56.57
39491;BME280;25175;50.140;18.990;2023-02-15T19:09:39;99606.53;;;4.12;56.42
39491;BME280;25175;50.140;18.990;2023-02-15T19:13:18;99613.50;;;4.21;56.58
39491;BME280;25175;50.140;18.990;2023-02-15T19:16:33;99614.75;;;4.17;56.62
39491;BME280;25175;50.140;18.990;2023-02-15T19:19:57;99612.84;;;4.09;56.88
39491;BME280;25175;50.140;18.990;2023-02-15T19:23:42;99650.72;;;4.02;56.94
39491;BME280;25175;50.140;18.990;2023-02-15T19:26:58;99543.06;;;3.59;56.97
39491;BME280;25175;50.140;18.990;2023-02-15T19:30:39;99602.50;;;3.90;57.12
39491;BME280;25175;50.140;18.990;2023-02-15T19:33:48;99602.91;;;3.86;57.34
39491;BME280;25175;50.140;18.990;2023-02-15T19:36:59;99591.13;;;3.72;57.36
39491;BME280;25175;50.140;18.990;2023-02-15T19:40:35;99600.69;;;3.72;57.67
39491;BME280;25175;50.140;18.990;2023-02-15T19:43:49;99600.41;;;3.65;57.77
39491;BME280;25175;50.140;18.990;2023-02-15T19:54:53;99592.38;;;3.59;57.94
39491;BME280;25175;50.140;18.990;2023-02-15T19:58:00;99597.94;;;3.54;57.84
39491;BME280;25175;50.140;18.990;2023-02-15T20:01:43;99587.03;;;3.41;57.86
39491;BME280;25175;50.140;18.990;2023-02-15T20:04:50;99593.06;;;3.42;58.06
39491;BME280;25175;50.140;18.990;2023-02-15T20:07:57;99583.06;;;3.37;58.23
39491;BME280;25175;50.140;18.990;2023-02-15T20:11:12;99582.78;;;3.31;58.36